createdAt,value
2018-06-05T00:01:29.829Z,91.60
2018-06-05T00:03:57.833Z,91.80
2018-06-05T00:06:25.811Z,92.00
2018-06-05T00:08:53.864Z,92.10
2018-06-05T00:11:21.870Z,92.30
2018-06-05T00:13:49.900Z,92.70
2018-06-05T00:16:17.976Z,93.00
2018-06-05T00:18:46.122Z,93.00
2018-06-05T00:21:14.167Z,92.90
2018-06-05T00:23:42.190Z,93.10
2018-06-05T00:26:10.188Z,93.20
2018-06-05T00:28:38.227Z,93.40
2018-06-05T00:31:06.277Z,93.40
2018-06-05T00:33:34.380Z,93.60
2018-06-05T00:36:02.366Z,93.80
2018-06-05T00:38:30.382Z,93.80
2018-06-05T00:40:58.388Z,93.70
2018-06-05T00:43:26.374Z,93.70
2018-06-05T00:45:54.390Z,93.90
2018-06-05T00:48:22.391Z,93.70
2018-06-05T00:50:50.394Z,93.80
2018-06-05T00:53:18.439Z,93.80
2018-06-05T00:55:46.425Z,93.80
2018-06-05T00:58:14.447Z,93.70
2018-06-05T01:00:42.436Z,93.70
2018-06-05T01:03:10.447Z,93.70
2018-06-05T01:05:38.515Z,93.70
2018-06-05T01:08:06.581Z,93.80
2018-06-05T01:10:34.617Z,94.10
2018-06-05T01:13:02.610Z,94.20
2018-06-05T01:15:30.640Z,94.50
2018-06-05T01:17:58.650Z,94.40
2018-06-05T01:20:26.676Z,94.40
2018-06-05T01:22:54.676Z,94.30
2018-06-05T01:25:22.678Z,94.40
2018-06-05T01:27:50.706Z,94.50
2018-06-05T01:30:18.719Z,94.50
2018-06-05T01:32:46.723Z,94.50
2018-06-05T01:35:14.759Z,94.50
2018-06-05T01:37:42.787Z,94.60
2018-06-05T01:40:10.794Z,94.80
2018-06-05T01:42:38.836Z,94.80
2018-06-05T01:45:06.865Z,94.70
2018-06-05T01:47:34.895Z,94.80
2018-06-05T01:50:02.937Z,94.80
2018-06-05T01:52:30.946Z,94.80
2018-06-05T01:54:59.032Z,94.80
2018-06-05T01:57:27.063Z,94.80
2018-06-05T01:59:55.074Z,94.80
2018-06-05T02:02:23.123Z,95.00
2018-06-05T02:04:51.166Z,94.70
2018-06-05T02:07:19.172Z,94.80
2018-06-05T02:09:47.175Z,95.00
2018-06-05T02:12:15.193Z,94.90
2018-06-05T02:14:43.231Z,95.00
2018-06-05T02:17:11.258Z,95.20
2018-06-05T02:19:39.274Z,95.10
2018-06-05T02:22:07.326Z,95.10
2018-06-05T02:24:35.432Z,94.90
2018-06-05T02:27:03.490Z,94.90
2018-06-05T02:29:31.502Z,94.90
2018-06-05T02:31:59.669Z,94.90
2018-06-05T02:34:27.656Z,94.80
2018-06-05T02:36:55.671Z,94.90
2018-06-05T02:39:23.690Z,94.80
2018-06-05T02:41:51.714Z,95.00
2018-06-05T02:44:19.783Z,94.90
2018-06-05T02:46:47.823Z,94.80
2018-06-05T02:49:15.836Z,94.90
2018-06-05T02:51:43.944Z,94.90
2018-06-05T02:54:11.995Z,94.80
2018-06-05T02:56:40.026Z,94.60
2018-06-05T02:59:08.052Z,94.60
2018-06-05T03:01:36.056Z,94.60
2018-06-05T03:04:04.067Z,94.50
2018-06-05T03:06:32.107Z,94.40
2018-06-05T03:09:00.178Z,94.40
2018-06-05T03:11:28.186Z,94.70
2018-06-05T03:13:56.223Z,94.60
2018-06-05T03:16:24.300Z,94.60
2018-06-05T03:18:52.306Z,94.60
2018-06-05T03:21:20.327Z,94.90
2018-06-05T03:23:48.389Z,94.50
2018-06-05T03:26:16.404Z,94.50
2018-06-05T03:28:44.452Z,94.50
2018-06-05T03:31:12.519Z,94.50
2018-06-05T03:33:40.590Z,94.40
2018-06-05T03:36:08.665Z,94.50
2018-06-05T03:38:36.659Z,94.50
2018-06-05T03:41:04.798Z,94.60
2018-06-05T03:43:32.801Z,94.60
2018-06-05T03:46:00.871Z,94.60
2018-06-05T03:48:28.949Z,94.60
2018-06-05T03:50:56.982Z,94.70
2018-06-05T03:53:24.992Z,94.70
2018-06-05T03:55:53.012Z,94.60
2018-06-05T03:58:21.038Z,94.60
2018-06-05T04:00:49.259Z,94.60
2018-06-05T04:03:17.332Z,94.50
2018-06-05T04:05:45.402Z,94.60
2018-06-05T04:08:13.402Z,94.60
2018-06-05T04:10:41.466Z,94.50
2018-06-05T04:13:09.513Z,94.30
2018-06-05T04:15:37.696Z,94.30
2018-06-05T04:18:05.692Z,94.20
2018-06-05T04:20:33.711Z,94.30
2018-06-05T04:23:01.888Z,94.10
2018-06-05T04:25:29.898Z,93.90
2018-06-05T04:27:58.044Z,94.10
2018-06-05T04:30:26.077Z,94.10
2018-06-05T04:32:54.090Z,94.10
2018-06-05T04:35:22.096Z,94.10
2018-06-05T04:37:50.141Z,93.90
2018-06-05T04:40:18.170Z,93.90
2018-06-05T04:42:46.203Z,94.00
2018-06-05T04:45:14.239Z,93.80
2018-06-05T04:47:42.309Z,93.70
2018-06-05T04:50:10.306Z,93.60
2018-06-05T04:52:38.326Z,93.40
2018-06-05T04:55:06.360Z,93.70
2018-06-05T04:57:34.370Z,93.30
2018-06-05T05:00:02.383Z,93.40
2018-06-05T05:02:30.402Z,93.10
2018-06-05T05:04:58.408Z,93.20
2018-06-05T05:07:26.463Z,93.40
2018-06-05T05:09:54.610Z,93.20
2018-06-05T05:12:22.770Z,93.30
2018-06-05T05:14:50.865Z,93.40
2018-06-05T05:17:19.050Z,93.30
2018-06-05T05:19:47.138Z,93.20
2018-06-05T05:22:15.218Z,93.00
2018-06-05T05:24:43.266Z,92.70
2018-06-05T05:27:11.542Z,92.60
2018-06-05T05:29:40.768Z,93.10
2018-06-05T05:32:08.855Z,92.90
2018-06-05T05:34:37.045Z,92.70
2018-06-05T05:37:05.055Z,92.90
2018-06-05T05:42:00.923Z,92.50
2018-06-05T05:44:28.920Z,92.80
2018-06-05T05:46:56.940Z,92.80
2018-06-05T05:49:24.959Z,92.60
2018-06-05T05:51:52.987Z,92.80
2018-06-05T05:54:21.039Z,92.70
2018-06-05T05:56:49.030Z,92.70
2018-06-05T05:59:17.091Z,92.60
2018-06-05T06:01:45.115Z,92.80
2018-06-05T06:04:13.159Z,93.00
2018-06-05T06:06:41.178Z,92.70
2018-06-05T06:09:09.304Z,92.50
2018-06-05T06:11:37.346Z,92.60
2018-06-05T06:14:05.348Z,92.40
2018-06-05T06:16:33.383Z,92.40
2018-06-05T06:19:01.376Z,92.60
2018-06-05T06:21:29.497Z,92.50
2018-06-05T06:23:57.594Z,92.70
2018-06-05T06:26:25.647Z,92.70
2018-06-05T06:28:53.658Z,92.80
2018-06-05T06:31:21.657Z,93.00
2018-06-05T06:33:49.703Z,93.00
2018-06-05T06:36:17.749Z,92.90
2018-06-05T06:38:45.758Z,92.90
2018-06-05T06:41:13.880Z,92.80
2018-06-05T06:43:41.888Z,92.90
2018-06-05T06:46:09.903Z,93.20
2018-06-05T06:48:37.921Z,92.80
2018-06-05T06:51:05.934Z,92.60
2018-06-05T06:53:33.936Z,92.60
2018-06-05T06:56:02.032Z,92.50
2018-06-05T06:58:30.041Z,92.30
2018-06-05T07:00:58.048Z,92.60
2018-06-05T07:03:26.056Z,92.10
2018-06-05T07:05:54.068Z,91.80
2018-06-05T07:08:22.092Z,91.80
2018-06-05T07:10:50.116Z,91.90
2018-06-05T07:13:18.124Z,91.80
2018-06-05T07:15:46.190Z,92.00
2018-06-05T07:18:14.204Z,91.60
2018-06-05T07:20:42.288Z,91.40
2018-06-05T07:23:10.324Z,91.90
2018-06-05T07:25:38.422Z,91.20
2018-06-05T07:28:06.615Z,91.60
2018-06-05T07:30:34.657Z,91.60
2018-06-05T07:33:02.729Z,91.30
2018-06-05T07:35:30.758Z,90.90
2018-06-05T07:37:58.779Z,90.80
2018-06-05T07:40:26.803Z,90.30
2018-06-05T07:42:54.844Z,91.00
2018-06-05T07:45:22.855Z,90.30
2018-06-05T07:47:50.890Z,90.60
2018-06-05T07:50:18.903Z,90.40
2018-06-05T07:52:46.931Z,90.40
2018-06-05T07:55:15.026Z,90.30
2018-06-05T07:57:43.030Z,90.20
2018-06-05T08:00:11.036Z,89.70
2018-06-05T08:02:39.058Z,90.20
2018-06-05T08:05:07.097Z,90.40
2018-06-05T08:07:35.222Z,90.60
2018-06-05T08:10:03.247Z,90.70
2018-06-05T08:12:31.296Z,90.30
2018-06-05T08:14:59.326Z,90.60
2018-06-05T08:17:27.326Z,90.20
2018-06-05T08:19:55.347Z,90.20
2018-06-05T08:22:23.799Z,90.40
2018-06-05T08:24:51.831Z,90.60
2018-06-05T08:27:19.838Z,90.30
2018-06-05T08:29:47.880Z,90.10
2018-06-05T08:32:16.844Z,90.00
2018-06-05T08:34:44.855Z,89.70
2018-06-05T08:37:12.864Z,89.30
2018-06-05T08:39:41.169Z,89.10
2018-06-05T08:42:09.165Z,89.50
2018-06-05T08:44:37.643Z,89.90
2018-06-05T08:47:05.646Z,90.00
2018-06-05T08:49:33.811Z,89.50
2018-06-05T08:52:01.863Z,89.70
2018-06-05T08:54:30.037Z,89.60
2018-06-05T08:56:58.069Z,89.60
2018-06-05T08:59:26.074Z,89.50
2018-06-05T09:01:54.110Z,90.10
2018-06-05T09:04:22.135Z,89.80
2018-06-05T09:06:50.158Z,89.40
2018-06-05T09:09:18.146Z,89.70
2018-06-05T09:11:46.177Z,90.20
2018-06-05T09:14:14.188Z,90.10
2018-06-05T09:16:42.194Z,90.20
2018-06-05T09:19:10.223Z,90.00
2018-06-05T09:21:38.238Z,89.50
2018-06-05T09:24:06.269Z,89.20
2018-06-05T09:26:34.258Z,89.40
2018-06-05T09:29:02.334Z,89.80
2018-06-05T09:31:30.358Z,89.70
2018-06-05T09:33:58.476Z,89.20
2018-06-05T09:36:26.515Z,89.90
2018-06-05T09:38:54.567Z,89.80
2018-06-05T09:41:22.567Z,90.00
2018-06-05T09:43:50.566Z,90.30
2018-06-05T09:46:18.588Z,90.30
2018-06-05T09:48:46.595Z,90.30
2018-06-05T09:51:14.668Z,90.30
2018-06-05T09:53:42.854Z,90.00
2018-06-05T09:56:10.892Z,90.50
2018-06-05T09:58:38.940Z,89.70
2018-06-05T10:01:07.157Z,90.00
2018-06-05T10:03:35.281Z,89.40
2018-06-05T10:06:03.281Z,88.80
2018-06-05T10:08:31.895Z,89.00
2018-06-05T10:10:59.953Z,89.40
2018-06-05T10:13:28.003Z,88.80
2018-06-05T10:15:56.037Z,88.90
2018-06-05T10:18:24.039Z,88.30
2018-06-05T10:20:52.089Z,87.50
2018-06-05T10:23:20.184Z,87.20
2018-06-05T10:25:48.231Z,87.30
2018-06-05T10:28:16.492Z,85.90
2018-06-05T10:30:44.516Z,86.60
2018-06-05T10:33:12.546Z,87.80
2018-06-05T10:35:40.559Z,86.60
2018-06-05T10:38:08.605Z,87.30
2018-06-05T10:40:36.644Z,86.70
2018-06-05T10:43:04.654Z,84.70
2018-06-05T10:45:32.663Z,85.30
2018-06-05T10:48:00.687Z,86.10
2018-06-05T10:50:28.699Z,85.50
2018-06-05T10:52:56.710Z,85.90
2018-06-05T10:55:24.762Z,85.20
2018-06-05T10:57:52.782Z,85.00
2018-06-05T11:00:20.833Z,85.20
2018-06-05T11:02:48.806Z,85.20
2018-06-05T11:05:16.807Z,84.40
2018-06-05T11:07:44.847Z,84.50
2018-06-05T11:10:12.860Z,85.80
2018-06-05T11:12:40.924Z,86.40
2018-06-05T11:15:08.925Z,86.40
2018-06-05T11:17:36.946Z,86.80
2018-06-05T11:20:05.052Z,86.90
2018-06-05T11:22:33.074Z,87.20
2018-06-05T11:25:01.115Z,87.30
2018-06-05T11:27:29.160Z,87.10
2018-06-05T11:29:57.171Z,87.30
2018-06-05T11:32:25.190Z,87.10
2018-06-05T11:34:53.342Z,87.90
2018-06-05T11:37:21.388Z,87.90
2018-06-05T11:39:49.466Z,87.10
2018-06-05T11:42:17.514Z,85.90
2018-06-05T11:44:45.541Z,85.40
2018-06-05T11:47:13.568Z,86.50
2018-06-05T11:49:41.576Z,85.90
2018-06-05T11:52:09.621Z,86.00
2018-06-05T11:54:37.671Z,86.50
2018-06-05T11:57:05.834Z,86.50
2018-06-05T11:59:33.881Z,85.80
2018-06-05T12:02:01.935Z,86.30
2018-06-05T12:04:30.831Z,85.70
2018-06-05T12:06:58.863Z,83.80
2018-06-05T12:09:26.952Z,83.70
2018-06-05T12:11:54.978Z,81.80
2018-06-05T12:14:22.999Z,80.20
2018-06-05T12:16:51.042Z,79.10
2018-06-05T12:19:19.090Z,80.00
2018-06-05T12:21:47.087Z,77.20
2018-06-05T12:24:15.087Z,80.00
2018-06-05T12:26:43.171Z,79.80
2018-06-05T12:29:11.185Z,78.30
2018-06-05T12:31:39.208Z,77.40
2018-06-05T12:34:07.264Z,77.10
2018-06-05T12:36:35.324Z,76.60
2018-06-05T12:39:04.673Z,75.30
2018-06-05T12:41:32.690Z,78.00
2018-06-05T12:44:00.781Z,72.80
2018-06-05T12:46:28.803Z,74.00
2018-06-05T12:48:56.802Z,72.20
2018-06-05T12:51:24.853Z,71.70
2018-06-05T12:53:52.856Z,73.30
2018-06-05T12:56:20.894Z,72.80
2018-06-05T12:58:48.899Z,74.50
2018-06-05T13:01:16.958Z,72.70
2018-06-05T13:03:45.003Z,73.00
2018-06-05T13:06:13.107Z,71.80
2018-06-05T13:08:41.148Z,73.20
2018-06-05T13:11:09.159Z,74.20
2018-06-05T13:13:37.191Z,73.30
2018-06-05T13:16:05.226Z,70.10
2018-06-05T13:18:33.227Z,69.10
2018-06-05T13:21:01.215Z,68.20
2018-06-05T13:23:29.229Z,68.40
2018-06-05T13:28:25.119Z,68.40
2018-06-05T13:30:53.224Z,69.70
2018-06-05T13:33:21.286Z,68.70
2018-06-05T13:35:49.311Z,67.70
2018-06-05T13:38:17.402Z,66.00
2018-06-05T13:40:45.475Z,64.20
2018-06-05T13:43:13.502Z,65.80
2018-06-05T13:45:41.518Z,64.00
2018-06-05T13:48:09.610Z,65.60
2018-06-05T13:50:38.923Z,64.40
2018-06-05T13:53:06.940Z,64.30
2018-06-05T13:55:34.958Z,63.10
2018-06-05T13:58:03.075Z,61.80
2018-06-05T14:00:31.171Z,62.90
2018-06-05T14:02:59.195Z,63.30
2018-06-05T14:05:27.216Z,64.20
2018-06-05T14:07:55.252Z,61.80
2018-06-05T14:10:23.258Z,59.10
2018-06-05T14:12:51.709Z,60.60
2018-06-05T14:15:19.714Z,58.80
2018-06-05T14:17:47.735Z,59.60
2018-06-05T14:20:15.766Z,60.40
2018-06-05T14:22:43.785Z,60.80
2018-06-05T14:25:11.790Z,61.40
2018-06-05T14:27:39.868Z,61.70
2018-06-05T14:32:35.908Z,61.10
2018-06-05T14:35:03.962Z,60.20
2018-06-05T14:37:31.984Z,59.40
2018-06-05T14:40:00.108Z,59.50
2018-06-05T14:42:28.139Z,59.90
2018-06-05T14:44:56.182Z,61.70
2018-06-05T14:49:52.033Z,63.10
2018-06-05T14:52:20.050Z,65.10
2018-06-05T14:54:48.078Z,64.40
2018-06-05T14:57:16.192Z,63.50
2018-06-05T14:59:44.243Z,63.20
2018-06-05T15:02:12.312Z,61.90
2018-06-05T15:04:40.304Z,60.60
2018-06-05T15:07:08.975Z,59.70
2018-06-05T15:09:36.972Z,60.40
2018-06-05T15:12:04.995Z,59.80
2018-06-05T15:14:33.073Z,60.30
2018-06-05T15:17:01.196Z,58.20
2018-06-05T15:19:29.190Z,58.30
2018-06-05T15:21:57.171Z,58.90
2018-06-05T15:24:25.233Z,58.20
2018-06-05T15:26:53.215Z,57.30
2018-06-05T15:29:21.207Z,56.70
2018-06-05T15:31:49.203Z,57.00
2018-06-05T15:34:17.260Z,57.30
2018-06-05T15:36:45.302Z,57.00
2018-06-05T15:39:13.299Z,58.00
2018-06-05T15:41:41.342Z,57.00
2018-06-05T15:44:09.355Z,57.00
2018-06-05T15:46:37.360Z,56.00
2018-06-05T15:49:05.350Z,55.80
2018-06-05T15:51:33.369Z,56.50
2018-06-05T15:54:01.403Z,56.70
2018-06-05T15:56:29.442Z,57.40
2018-06-05T15:58:57.461Z,57.50
2018-06-05T16:01:25.520Z,57.10
2018-06-05T16:03:53.516Z,57.30
2018-06-05T16:06:21.571Z,58.10
2018-06-05T16:08:49.617Z,57.30
2018-06-05T16:11:17.640Z,57.90
2018-06-05T16:13:45.789Z,57.70
2018-06-05T16:16:13.823Z,57.80
2018-06-05T16:18:41.820Z,58.40
2018-06-05T16:21:09.862Z,58.30
2018-06-05T16:23:37.862Z,57.80
2018-06-05T16:26:05.905Z,57.80
2018-06-05T16:28:33.903Z,57.70
2018-06-05T16:31:01.941Z,57.50
2018-06-05T16:33:29.957Z,57.70
2018-06-05T16:35:57.985Z,58.00
2018-06-05T16:38:26.070Z,57.90
2018-06-05T16:40:54.125Z,58.10
2018-06-05T16:43:22.198Z,57.70
2018-06-05T16:45:50.244Z,58.00
2018-06-05T16:48:18.268Z,58.90
2018-06-05T16:50:46.388Z,58.60
2018-06-05T16:53:14.404Z,58.90
2018-06-05T16:55:42.476Z,59.30
2018-06-05T16:58:10.512Z,59.80
2018-06-05T17:00:38.516Z,61.60
2018-06-05T17:03:06.540Z,61.80
2018-06-05T17:05:34.584Z,62.50
2018-06-05T17:08:02.828Z,62.80
2018-06-05T17:10:30.871Z,63.20
2018-06-05T17:13:01.300Z,64.00
2018-06-05T17:15:29.445Z,64.70
2018-06-05T17:17:58.053Z,64.40
2018-06-05T17:20:26.138Z,63.50
2018-06-05T17:22:54.109Z,63.20
2018-06-05T17:25:22.199Z,62.80
2018-06-05T17:27:50.255Z,63.30
2018-06-05T17:30:18.303Z,63.30
2018-06-05T17:32:46.359Z,63.70
2018-06-05T17:35:14.357Z,63.10
2018-06-05T17:37:42.568Z,63.80
2018-06-05T17:40:10.949Z,63.00
2018-06-05T17:42:39.034Z,62.60
2018-06-05T17:45:07.071Z,62.90
2018-06-05T17:47:35.205Z,63.30
2018-06-05T17:50:03.327Z,62.60
2018-06-05T17:52:31.383Z,63.60
2018-06-05T17:54:59.411Z,63.60
2018-06-05T17:57:27.435Z,62.20
2018-06-05T18:02:23.388Z,63.70
2018-06-05T18:04:51.443Z,64.00
2018-06-05T18:07:19.506Z,62.60
2018-06-05T18:09:47.576Z,61.20
2018-06-05T18:12:15.631Z,59.50
2018-06-05T18:14:43.618Z,57.60
2018-06-05T18:17:11.702Z,56.50
2018-06-05T18:19:39.735Z,56.20
2018-06-05T18:22:07.726Z,54.30
2018-06-05T18:24:35.797Z,53.40
2018-06-05T18:27:03.843Z,52.50
2018-06-05T18:29:31.994Z,51.70
2018-06-05T18:31:59.902Z,51.60
2018-06-05T18:36:55.797Z,50.80
2018-06-05T18:39:23.813Z,51.00
2018-06-05T18:41:51.885Z,50.10
2018-06-05T18:44:19.883Z,49.90
2018-06-05T18:46:47.898Z,50.90
2018-06-05T18:49:15.896Z,51.10
2018-06-05T18:51:44.068Z,50.40
2018-06-05T18:54:12.104Z,50.60
2018-06-05T18:56:40.090Z,50.90
2018-06-05T18:59:08.155Z,50.80
2018-06-05T19:01:36.164Z,50.70
2018-06-05T19:04:04.223Z,50.40
2018-06-05T19:06:32.208Z,49.50
2018-06-05T19:09:00.225Z,47.90
2018-06-05T19:11:28.225Z,47.80
2018-06-05T19:13:56.231Z,47.40
2018-06-05T19:16:24.242Z,43.90
2018-06-05T19:18:52.237Z,42.30
2018-06-05T19:21:20.335Z,42.30
2018-06-05T19:23:48.384Z,40.30
2018-06-05T19:26:16.394Z,40.50
2018-06-05T19:28:44.433Z,40.70
2018-06-05T19:31:12.724Z,40.50
2018-06-05T19:33:40.751Z,40.00
2018-06-05T19:36:08.759Z,40.30
2018-06-05T19:38:36.782Z,40.80
2018-06-05T19:41:04.798Z,41.40
2018-06-05T19:43:32.841Z,41.80
2018-06-05T19:46:00.837Z,41.60
2018-06-05T19:48:28.843Z,41.60
2018-06-05T19:50:56.874Z,40.70
2018-06-05T19:53:24.915Z,40.60
2018-06-05T19:55:52.967Z,40.50
2018-06-05T19:58:20.954Z,40.90
2018-06-05T20:00:48.973Z,40.70
2018-06-05T20:03:16.972Z,40.40
2018-06-05T20:05:45.044Z,41.50
2018-06-05T20:08:13.039Z,40.10
2018-06-05T20:13:09.038Z,40.60
2018-06-05T20:15:37.018Z,40.20
2018-06-05T20:18:05.130Z,39.70
2018-06-05T20:20:33.219Z,39.90
2018-06-05T20:23:01.267Z,40.00
2018-06-05T20:25:29.294Z,38.90
2018-06-05T20:27:57.350Z,38.80
2018-06-05T20:30:25.358Z,38.30
2018-06-05T20:37:49.043Z,38.80
2018-06-05T20:40:17.041Z,38.50
2018-06-05T20:42:45.085Z,39.10
2018-06-05T20:45:13.073Z,39.60
2018-06-05T20:47:41.123Z,40.00
2018-06-05T20:50:09.267Z,40.40
2018-06-05T20:52:37.243Z,40.80
2018-06-05T20:55:05.234Z,41.20
2018-06-05T20:57:33.235Z,40.80
2018-06-05T21:00:01.256Z,41.30
2018-06-05T21:02:29.335Z,41.70
2018-06-05T21:04:57.342Z,41.90
2018-06-05T21:07:25.318Z,42.30
2018-06-05T21:09:53.337Z,42.50
2018-06-05T21:12:21.327Z,42.90
2018-06-05T21:14:49.322Z,43.10
2018-06-05T21:17:17.395Z,43.50
2018-06-05T21:19:45.435Z,43.80
2018-06-05T21:22:13.434Z,44.10
2018-06-05T21:24:41.454Z,44.00
2018-06-05T21:27:09.453Z,44.00
2018-06-05T21:29:37.438Z,44.50
2018-06-05T21:32:05.463Z,44.70
2018-06-05T21:34:33.483Z,45.00
2018-06-05T21:37:01.570Z,45.10
2018-06-05T21:39:29.687Z,45.70
2018-06-05T21:41:57.707Z,46.00
2018-06-05T21:44:25.782Z,46.00
2018-06-05T21:46:53.770Z,46.60
2018-06-05T21:49:21.790Z,46.80
2018-06-05T21:51:49.789Z,46.90
2018-06-05T21:54:17.783Z,47.40
2018-06-05T21:56:45.770Z,47.60
2018-06-05T21:59:13.780Z,47.70
2018-06-05T22:01:41.824Z,48.00
2018-06-05T22:04:09.899Z,48.40
2018-06-05T22:09:07.965Z,49.00
2018-06-05T22:11:36.014Z,49.10
2018-06-05T22:14:04.311Z,49.50
2018-06-05T22:16:32.292Z,49.60
2018-06-05T22:19:00.295Z,49.90
2018-06-05T22:21:28.330Z,50.20
2018-06-05T22:23:56.303Z,50.20
2018-06-05T22:26:24.287Z,50.10
2018-06-05T22:28:52.328Z,50.30
2018-06-05T22:31:20.307Z,50.20
2018-06-05T22:33:48.312Z,51.30
2018-06-05T22:36:18.542Z,50.40
2018-06-05T22:38:46.554Z,50.80
2018-06-05T22:41:14.560Z,51.20
2018-06-05T22:43:42.539Z,51.00
2018-06-05T22:46:10.523Z,51.40
2018-06-05T22:48:38.526Z,51.90
2018-06-05T22:51:06.524Z,51.90
2018-06-05T22:53:34.526Z,51.90
2018-06-05T22:56:02.662Z,52.00
2018-06-05T22:58:30.685Z,52.20
2018-06-05T23:00:58.910Z,52.40
2018-06-05T23:03:27.016Z,52.50
2018-06-05T23:05:55.128Z,52.70
2018-06-05T23:08:23.123Z,52.80
2018-06-05T23:10:51.127Z,52.80
2018-06-05T23:13:19.134Z,53.10
2018-06-05T23:15:47.143Z,53.10
2018-06-05T23:18:15.193Z,53.10
2018-06-05T23:20:43.154Z,53.20
2018-06-05T23:23:11.161Z,53.60
2018-06-05T23:25:39.179Z,53.60
2018-06-05T23:28:07.209Z,54.00
2018-06-05T23:30:41.789Z,54.10
2018-06-05T23:33:09.775Z,54.20
2018-06-05T23:38:05.709Z,54.60
2018-06-05T23:40:33.687Z,54.30
2018-06-05T23:43:01.679Z,54.50
2018-06-05T23:45:29.746Z,54.80
2018-06-05T23:47:57.786Z,54.70
2018-06-05T23:50:26.170Z,54.70
2018-06-05T23:52:54.174Z,55.20
2018-06-05T23:55:22.299Z,55.00
2018-06-05T23:57:50.302Z,55.20
